Canton, MA

12:59 PM EST on December 18, 2014 (GMT -0500)
Great Blue Hill | Change Station
CLOSE
Current Station
Personal Weather Station
Location: Milton, MA
Elevation: 640 ft
Nearby Weather Stations

Elev 640 ft 42.21 °N, 71.11 °W | Updated 9 minutes ago

Mostly Cloudy
Mostly Cloudy
39.3 °F
Feels Like 31 °F
N
15.0
Wind Variable Wind from WNW
Gusts 29.0 mph

Today
High -- | Low -- °F
--% Chance of Precip.
Yesterday
High -- | Low -- °F
Precip. -- in
7:08 AM 4:14 PM
Waning Crescent, 13% visible
Pressure 29.78 in
Visibility 10.0 miles
Clouds Overcast 3600 ft
Windchill 31 °F
Dew Point 32 °F
Humidity 75%
Rainfall 0.00 in
Snow Depth Not available.
UV 1 out of 12
Pollen .10 out of 12
Air Quality Not available.
Flu Activity Not available.
METAR KOWD 181753Z 28011G19KT 10SM OVC036 06/M02 A2977 RMK AO2 SLP082 60000 T00561017 10061 20017 56006

More Conditions Fewer Conditions

Pressure 29.78 in
Visibility 10.0 miles
Clouds Overcast 3600 ft
Windchill 31 °F
Dew Point 32 °F
Humidity 75%
Rainfall 0.00 in
Snow Depth Not available.
UV 1 out of 12
Pollen .10 out of 12
Air Quality Not available.
Flu Activity Not available.
METAR KOWD 181753Z 28011G19KT 10SM OVC036 06/M02 A2977 RMK AO2 SLP082 60000 T00561017 10061 20017 56006

More Conditions Fewer Conditions

10-Day Weather Forecast

Almanac

Astronomy

Dec. 18, 2014 Rise Set
Actual Time
Civil Twilight
Nautical Twilight
Astronomical Twilight
Moon
Length of Visible Light
Length of Day
Tomorrow will be .
, % of the Moon is Illuminated

Today's Extremes

State Highs State Lows

Community

WunderPhotos

Upload Photos

1,778,969 photos uploaded!

WunderBlogs® & News

Nearby

Air Quality

  Air Quality AQ Index Pollutant
Not available.

Snow Depth

Station Depth Elevation

Earthquake Activity

City Distance Mag. Time & Date
Minimum magnitude displayed is 2.5.

Coastal Water Temperatures

Place Temperature

Nearby Weather Stations